Time;durP1;ratioP1;P1;durP2;ratioP2;P2;SDS_P1;SDS_P2;PMS_P1;PMS_P2;Temp;Humidity;BMP_temperature;BMP_pressure;BME280_temperature;BME280_humidity;BME280_pressure;Samples;Min_cycle;Max_cycle;Signal;HPM_P1;HPM_P2
2021/06/30 00:00:14;;;;;;;3.47;3.17;;;22.10;71.70;;;;;;5094267;28;20055;-45
2021/06/30 00:02:40;;;;;;;2.90;2.53;;;22.10;71.70;;;;;;5111846;28;20487;-49
2021/06/30 00:05:08;;;;;;;5.65;3.35;;;22.00;71.70;;;;;;5114051;28;20126;-47
2021/06/30 00:07:34;;;;;;;4.50;2.97;;;22.10;71.70;;;;;;5112549;28;20067;-50
2021/06/30 00:10:01;;;;;;;3.80;3.00;;;22.00;71.70;;;;;;5111474;28;20048;-43
2021/06/30 00:12:27;;;;;;;3.35;3.00;;;22.10;71.70;;;;;;5098327;28;20055;-47
2021/06/30 00:14:56;;;;;;;3.55;2.72;;;22.10;71.70;;;;;;5113518;28;20101;-46
2021/06/30 00:17:23;;;;;;;3.63;2.95;;;22.00;71.70;;;;;;5111530;28;20039;-47
2021/06/30 00:19:49;;;;;;;2.83;2.53;;;22.00;71.70;;;;;;5102172;28;20131;-47
2021/06/30 00:22:15;;;;;;;3.60;3.03;;;22.00;71.70;;;;;;5113365;28;20079;-47
2021/06/30 00:24:41;;;;;;;4.20;3.15;;;22.00;72.40;;;;;;5112953;28;20043;-49
2021/06/30 00:27:07;;;;;;;3.20;2.88;;;22.00;71.70;;;;;;5103949;28;20089;-43
2021/06/30 00:29:33;;;;;;;5.20;2.92;;;22.00;71.70;;;;;;5097389;28;20055;-49
2021/06/30 00:31:58;;;;;;;3.40;2.67;;;22.00;71.70;;;;;;5091111;28;20105;-43
2021/06/30 00:34:24;;;;;;;3.75;3.08;;;22.10;71.80;;;;;;5092506;28;20552;-48
2021/06/30 00:36:50;;;;;;;3.55;3.13;;;22.00;71.70;;;;;;5092038;28;20044;-48
2021/06/30 00:39:16;;;;;;;3.38;3.03;;;22.00;71.70;;;;;;5092115;28;20480;-50
2021/06/30 00:41:43;;;;;;;3.08;2.78;;;22.00;71.70;;;;;;5101909;28;20051;-45
2021/06/30 00:44:09;;;;;;;3.60;2.88;;;22.00;71.70;;;;;;5095785;28;20051;-49
2021/06/30 00:46:35;;;;;;;3.35;2.83;;;22.00;71.70;;;;;;5110596;28;20048;-45
2021/06/30 00:49:03;;;;;;;3.75;3.28;;;22.00;71.70;;;;;;5113004;28;20055;-45
2021/06/30 00:51:29;;;;;;;2.88;2.63;;;22.00;71.70;;;;;;5112597;28;20047;-46
2021/06/30 00:53:55;;;;;;;4.03;2.90;;;22.00;71.70;;;;;;5112640;28;20486;-47
2021/06/30 00:56:24;;;;;;;3.97;2.90;;;22.00;71.80;;;;;;5109873;28;20040;-52
2021/06/30 00:58:55;;;;;;;2.97;2.47;;;22.00;71.70;;;;;;5102965;28;20071;-45
2021/06/30 01:01:22;;;;;;;3.60;2.75;;;22.00;71.70;;;;;;5103355;28;20048;-50
2021/06/30 01:03:49;;;;;;;3.15;2.85;;;22.00;71.70;;;;;;5112083;28;20044;-50
2021/06/30 01:06:16;;;;;;;3.38;2.35;;;22.00;71.80;;;;;;5111810;28;20085;-44
2021/06/30 01:08:42;;;;;;;3.30;2.70;;;22.00;71.70;;;;;;5111054;28;20515;-52
2021/06/30 01:11:09;;;;;;;3.50;3.05;;;22.00;71.70;;;;;;5112220;28;20094;-45
2021/06/30 01:13:35;;;;;;;3.28;2.85;;;22.00;71.70;;;;;;5111782;28;20059;-48
2021/06/30 01:16:02;;;;;;;3.33;2.78;;;22.00;71.70;;;;;;5112476;28;20051;-46
2021/06/30 01:18:30;;;;;;;3.08;2.63;;;22.00;71.80;;;;;;5110175;28;20070;-50
2021/06/30 01:20:56;;;;;;;4.50;2.97;;;22.00;71.80;;;;;;5112109;28;20059;-51
2021/06/30 01:23:23;;;;;;;3.25;2.90;;;22.00;71.80;;;;;;5111680;28;20048;-52
2021/06/30 01:25:49;;;;;;;2.85;2.55;;;22.00;71.80;;;;;;5101691;28;20044;-46
2021/06/30 01:28:17;;;;;;;2.80;2.40;;;22.00;71.80;;;;;;5110419;28;20070;-50
2021/06/30 01:30:44;;;;;;;3.22;2.92;;;22.00;71.80;;;;;;5103159;28;20544;-49
2021/06/30 01:33:10;;;;;;;3.25;2.85;;;22.00;71.80;;;;;;5100073;28;20567;-46
2021/06/30 01:35:36;;;;;;;3.47;2.78;;;22.00;71.80;;;;;;5111726;28;20047;-44
2021/06/30 01:38:02;;;;;;;3.28;2.90;;;22.00;71.80;;;;;;5111049;28;20097;-51
2021/06/30 01:40:29;;;;;;;3.42;2.80;;;22.00;71.80;;;;;;5102613;28;20118;-49
2021/06/30 01:42:57;;;;;;;3.25;2.92;;;22.00;71.80;;;;;;5110690;28;20047;-46
2021/06/30 01:45:23;;;;;;;3.15;2.65;;;22.00;71.80;;;;;;5110730;28;20051;-45
2021/06/30 01:47:49;;;;;;;3.50;2.53;;;22.00;71.80;;;;;;5112393;28;20055;-51
2021/06/30 01:50:15;;;;;;;3.70;3.03;;;22.00;71.80;;;;;;5109638;28;20419;-52
2021/06/30 01:52:43;;;;;;;3.67;2.78;;;22.00;71.80;;;;;;5111769;28;20373;-46
2021/06/30 01:55:10;;;;;;;3.67;2.85;;;21.90;71.70;;;;;;5106472;28;20044;-51
2021/06/30 01:57:45;;;;;;;4.63;2.97;;;22.00;71.80;;;;;;5102129;28;20050;-49
2021/06/30 02:00:13;;;;;;;3.03;2.72;;;21.90;71.70;;;;;;5096702;28;20044;-50
2021/06/30 02:02:40;;;;;;;3.53;3.03;;;21.90;71.70;;;;;;5092686;28;20070;-45
2021/06/30 02:05:11;;;;;;;3.92;2.92;;;21.90;71.70;;;;;;5091359;28;20445;-48
2021/06/30 02:07:51;;;;;;;3.03;2.40;;;21.90;71.70;;;;;;5091432;28;20071;-49
2021/06/30 02:10:18;;;;;;;3.25;2.67;;;22.00;71.80;;;;;;5093174;28;20044;-49
2021/06/30 02:12:45;;;;;;;3.40;2.90;;;21.90;71.70;;;;;;5094599;28;20483;-45
2021/06/30 02:15:23;;;;;;;3.72;2.90;;;21.90;71.70;;;;;;5111022;28;20130;-52
2021/06/30 02:17:55;;;;;;;3.45;2.53;;;21.90;71.80;;;;;;5113297;28;20043;-52
2021/06/30 02:20:22;;;;;;;3.03;2.67;;;21.90;71.70;;;;;;5103091;28;20048;-44
2021/06/30 02:22:49;;;;;;;4.47;2.97;;;21.90;71.70;;;;;;5110346;28;20104;-49
2021/06/30 02:25:18;;;;;;;3.05;2.67;;;21.90;71.80;;;;;;5107431;28;20078;-50
2021/06/30 02:27:45;;;;;;;3.30;2.75;;;21.90;71.70;;;;;;5103596;28;20043;-44
2021/06/30 02:30:14;;;;;;;2.78;2.47;;;21.90;71.70;;;;;;5110945;28;20066;-51
2021/06/30 02:32:40;;;;;;;3.33;2.60;;;21.90;71.70;;;;;;5110269;28;20127;-45
2021/06/30 02:35:09;;;;;;;2.65;2.40;;;21.90;71.70;;;;;;5108394;28;20040;-46
2021/06/30 02:37:35;;;;;;;3.83;3.00;;;21.90;71.70;;;;;;5090418;28;20334;-45
2021/06/30 02:40:02;;;;;;;4.60;3.13;;;21.90;71.70;;;;;;5096455;28;20067;-48
2021/06/30 02:42:28;;;;;;;3.22;2.92;;;21.90;71.80;;;;;;5096968;28;20523;-47
2021/06/30 02:44:53;;;;;;;3.22;2.92;;;21.90;71.70;;;;;;5090681;28;20079;-46
2021/06/30 02:47:19;;;;;;;4.10;3.05;;;21.90;71.80;;;;;;5090999;28;20125;-51
2021/06/30 02:49:45;;;;;;;3.83;2.67;;;21.90;71.70;;;;;;5098599;28;20048;-46
2021/06/30 02:52:11;;;;;;;3.25;2.83;;;21.90;71.70;;;;;;5090547;28;20465;-48
2021/06/30 02:54:40;;;;;;;3.42;2.63;;;21.90;71.70;;;;;;5091024;28;20060;-53
2021/06/30 02:57:05;;;;;;;3.00;2.70;;;21.90;71.70;;;;;;5096657;28;20089;-52
2021/06/30 02:59:31;;;;;;;4.28;2.83;;;21.90;71.80;;;;;;5091934;28;20097;-49
2021/06/30 03:01:57;;;;;;;4.97;2.90;;;21.90;71.70;;;;;;5092529;28;20040;-53
2021/06/30 03:04:23;;;;;;;2.58;2.38;;;21.90;71.70;;;;;;5108264;28;20047;-46
2021/06/30 03:06:49;;;;;;;3.50;2.65;;;21.90;71.80;;;;;;5110491;28;20532;-47
2021/06/30 03:09:18;;;;;;;3.85;2.72;;;21.90;71.70;;;;;;5099412;28;20063;-49
2021/06/30 03:11:44;;;;;;;3.10;2.80;;;21.90;71.80;;;;;;5107348;28;20085;-46
2021/06/30 03:14:09;;;;;;;3.88;2.70;;;21.80;71.70;;;;;;5091819;28;20040;-52
2021/06/30 03:16:35;;;;;;;3.25;2.95;;;21.90;71.70;;;;;;5090667;28;20052;-47
2021/06/30 03:19:01;;;;;;;3.03;2.58;;;21.90;71.70;;;;;;5106614;28;20039;-51
2021/06/30 03:21:27;;;;;;;3.22;2.70;;;21.90;71.80;;;;;;5114148;28;20059;-44
2021/06/30 03:23:52;;;;;;;3.63;2.75;;;21.90;71.80;;;;;;5113448;28;20104;-50
2021/06/30 03:26:18;;;;;;;2.72;2.33;;;21.90;71.80;;;;;;5113775;28;20475;-46
2021/06/30 03:28:44;;;;;;;4.53;2.75;;;21.90;71.80;;;;;;5113213;28;20073;-45
2021/06/30 03:31:09;;;;;;;3.15;2.85;;;21.90;71.70;;;;;;5112062;28;20135;-52
2021/06/30 03:33:36;;;;;;;3.15;2.85;;;21.90;71.70;;;;;;5113385;28;20051;-46
2021/06/30 03:36:04;;;;;;;4.32;2.80;;;21.90;71.70;;;;;;5101691;28;20115;-45
2021/06/30 03:38:31;;;;;;;3.10;2.47;;;21.90;71.70;;;;;;5099502;28;20074;-48
2021/06/30 03:40:57;;;;;;;3.58;2.70;;;21.90;71.70;;;;;;5111325;28;20048;-49
2021/06/30 03:43:23;;;;;;;2.67;2.47;;;21.90;71.80;;;;;;5111974;28;20449;-47
2021/06/30 03:45:48;;;;;;;4.15;2.58;;;21.90;71.80;;;;;;5102152;28;20048;-52
2021/06/30 03:48:14;;;;;;;3.92;2.78;;;21.90;72.40;;;;;;5093090;28;20791;-52
2021/06/30 03:50:41;;;;;;;3.10;2.80;;;21.90;71.70;;;;;;5098313;28;20043;-43
2021/06/30 03:53:06;;;;;;;3.88;3.00;;;21.80;71.70;;;;;;5113200;28;20042;-42
2021/06/30 03:55:32;;;;;;;3.55;2.72;;;21.80;71.70;;;;;;5113063;28;20051;-44
2021/06/30 03:57:58;;;;;;;3.50;2.33;;;21.80;72.40;;;;;;5107076;28;20545;-43
2021/06/30 04:00:26;;;;;;;2.90;2.58;;;21.80;71.70;;;;;;5093969;28;20050;-43
2021/06/30 04:02:53;;;;;;;2.92;2.60;;;21.90;71.70;;;;;;5094578;28;20484;-43
2021/06/30 04:05:19;;;;;;;2.90;2.60;;;21.90;71.70;;;;;;5097689;28;20047;-40
2021/06/30 04:07:45;;;;;;;3.10;2.58;;;21.80;71.70;;;;;;5098768;28;20097;-42
2021/06/30 04:10:11;;;;;;;3.33;2.85;;;21.80;71.70;;;;;;5092373;28;20051;-44
2021/06/30 04:12:37;;;;;;;3.50;2.63;;;21.80;71.70;;;;;;5093407;28;20060;-42
2021/06/30 04:15:04;;;;;;;3.30;2.75;;;21.80;71.70;;;;;;5093085;28;20048;-43
2021/06/30 04:17:29;;;;;;;3.30;2.60;;;21.80;71.70;;;;;;5093359;28;20139;-47
2021/06/30 04:19:55;;;;;;;3.22;2.88;;;21.80;71.70;;;;;;5093143;28;20139;-44
2021/06/30 04:22:21;;;;;;;3.20;2.63;;;21.80;71.70;;;;;;5112530;28;20052;-49
2021/06/30 04:24:46;;;;;;;2.92;2.30;;;21.80;71.70;;;;;;5113459;28;20583;-41
2021/06/30 04:27:12;;;;;;;5.20;2.53;;;21.80;71.70;;;;;;5105421;28;20052;-42
2021/06/30 04:29:38;;;;;;;3.72;3.20;;;21.80;71.70;;;;;;5093133;28;20510;-41
2021/06/30 04:32:04;;;;;;;3.33;2.90;;;21.80;71.70;;;;;;5111861;28;20071;-42
2021/06/30 04:34:30;;;;;;;2.78;2.55;;;21.80;71.70;;;;;;5111577;28;20139;-44
2021/06/30 04:36:56;;;;;;;5.05;2.88;;;21.80;72.40;;;;;;5095475;28;20658;-43
2021/06/30 04:39:23;;;;;;;2.95;2.60;;;21.80;71.70;;;;;;5105920;28;20039;-44
2021/06/30 04:41:49;;;;;;;3.95;2.63;;;21.80;71.70;;;;;;5112954;28;20414;-52
2021/06/30 04:44:14;;;;;;;3.20;2.38;;;21.80;71.70;;;;;;5096109;28;20044;-49
2021/06/30 04:46:40;;;;;;;2.80;2.45;;;21.80;71.70;;;;;;5093055;28;20099;-49
2021/06/30 04:49:06;;;;;;;2.70;2.38;;;21.80;71.60;;;;;;5103475;28;20138;-44
2021/06/30 04:51:31;;;;;;;3.85;2.90;;;21.80;71.70;;;;;;5097493;28;20452;-46
2021/06/30 04:53:57;;;;;;;3.45;2.70;;;21.80;71.70;;;;;;5094137;28;20062;-48
2021/06/30 04:56:39;;;;;;;2.75;2.53;;;21.80;71.70;;;;;;5107925;28;20357;-48
2021/06/30 04:59:04;;;;;;;7.18;2.92;;;21.80;71.70;;;;;;5111296;28;20039;-48
2021/06/30 05:01:30;;;;;;;2.88;2.53;;;21.80;71.70;;;;;;5104911;28;20055;-44
2021/06/30 05:03:56;;;;;;;3.80;2.90;;;21.80;71.70;;;;;;5096722;28;20404;-44
2021/06/30 05:06:21;;;;;;;4.45;2.85;;;21.80;72.30;;;;;;5093596;28;20048;-46
2021/06/30 05:08:47;;;;;;;3.13;2.83;;;21.80;71.60;;;;;;5093170;28;20116;-46
2021/06/30 05:11:14;;;;;;;3.05;2.53;;;21.80;71.70;;;;;;5112804;28;20154;-42
2021/06/30 05:13:39;;;;;;;2.55;2.33;;;21.80;71.70;;;;;;5111478;28;20127;-39
2021/06/30 05:16:06;;;;;;;2.58;2.38;;;21.80;71.70;;;;;;5093452;28;20072;-44
2021/06/30 05:18:31;;;;;;;3.03;2.67;;;21.80;71.70;;;;;;5092343;28;20091;-42
2021/06/30 05:20:57;;;;;;;3.38;2.60;;;21.80;71.70;;;;;;5101056;28;20488;-43
2021/06/30 05:23:23;;;;;;;2.85;2.55;;;21.80;71.70;;;;;;5112812;28;20075;-41
2021/06/30 05:25:49;;;;;;;2.70;2.50;;;21.80;71.70;;;;;;5105677;28;20070;-39
2021/06/30 05:28:15;;;;;;;2.95;2.65;;;21.80;71.70;;;;;;5111755;28;20047;-43
2021/06/30 05:30:41;;;;;;;3.45;2.33;;;21.80;71.70;;;;;;5102342;28;20039;-46
2021/06/30 05:33:06;;;;;;;2.90;2.47;;;21.80;71.70;;;;;;5112279;28;20108;-43
2021/06/30 05:35:32;;;;;;;3.17;2.75;;;21.80;71.70;;;;;;5105275;28;20044;-43
2021/06/30 05:37:58;;;;;;;3.90;2.58;;;21.80;71.70;;;;;;5093191;28;20097;-43
2021/06/30 05:40:24;;;;;;;3.35;2.40;;;21.80;71.70;;;;;;5097264;28;20071;-40
2021/06/30 05:42:49;;;;;;;3.05;2.45;;;21.80;71.70;;;;;;5109507;28;20059;-44
2021/06/30 05:45:16;;;;;;;2.72;2.42;;;21.70;71.60;;;;;;5103398;28;20134;-40
2021/06/30 05:47:44;;;;;;;2.67;2.40;;;21.80;71.70;;;;;;5092828;28;20048;-45
2021/06/30 05:50:11;;;;;;;2.83;2.53;;;21.80;71.70;;;;;;5091316;28;20086;-43
2021/06/30 05:52:37;;;;;;;3.08;2.33;;;21.80;71.70;;;;;;5100467;28;20130;-42
2021/06/30 05:55:03;;;;;;;2.58;2.28;;;21.70;71.60;;;;;;5110031;28;20412;-47
2021/06/30 05:57:29;;;;;;;3.58;2.35;;;21.80;71.70;;;;;;5109782;28;20040;-43
2021/06/30 05:59:55;;;;;;;3.20;2.50;;;21.70;71.60;;;;;;5109610;28;20039;-42
2021/06/30 06:02:21;;;;;;;3.25;2.65;;;21.70;71.60;;;;;;5094959;28;20528;-42
2021/06/30 06:04:46;;;;;;;2.60;2.40;;;21.80;71.60;;;;;;5109688;28;20065;-43
2021/06/30 06:07:12;;;;;;;3.03;2.65;;;21.70;71.60;;;;;;5112183;28;20376;-42
2021/06/30 06:09:38;;;;;;;3.05;2.60;;;21.70;71.60;;;;;;5109872;28;20055;-44
2021/06/30 06:12:04;;;;;;;2.45;2.22;;;21.70;71.60;;;;;;5110494;28;20042;-47
2021/06/30 06:14:30;;;;;;;3.08;2.78;;;21.70;71.60;;;;;;5111387;28;20059;-46
2021/06/30 06:16:56;;;;;;;2.90;2.53;;;21.80;71.70;;;;;;5096671;28;20057;-43
2021/06/30 06:19:23;;;;;;;3.88;2.67;;;21.70;71.60;;;;;;5103340;28;20040;-47
2021/06/30 06:21:49;;;;;;;2.85;2.53;;;21.80;71.70;;;;;;5091552;28;20067;-45
2021/06/30 06:24:15;;;;;;;3.10;2.72;;;21.70;71.60;;;;;;5090987;28;20059;-44
2021/06/30 06:26:41;;;;;;;2.53;2.33;;;21.70;71.60;;;;;;5090460;28;20066;-47
2021/06/30 06:29:07;;;;;;;2.97;2.65;;;21.70;71.50;;;;;;5092436;28;20051;-40
2021/06/30 06:31:33;;;;;;;2.67;2.47;;;21.70;71.50;;;;;;5090420;28;20578;-45
2021/06/30 06:33:58;;;;;;;2.40;2.13;;;21.70;71.60;;;;;;5090272;28;20072;-44
2021/06/30 06:36:24;;;;;;;3.83;2.58;;;21.70;71.60;;;;;;5105343;28;20047;-46
2021/06/30 06:38:51;;;;;;;2.65;2.35;;;21.70;71.50;;;;;;5093495;28;20061;-46
2021/06/30 06:41:16;;;;;;;8.55;4.85;;;21.70;71.60;;;;;;5097691;28;20520;-46
2021/06/30 06:43:43;;;;;;;5.57;4.18;;;21.70;70.90;;;;;;5099062;28;20126;-49
2021/06/30 06:46:10;;;;;;;3.58;3.00;;;21.60;71.00;;;;;;5111917;28;20422;-44
2021/06/30 06:48:36;;;;;;;5.00;3.38;;;21.60;71.10;;;;;;5105805;28;20044;-41
2021/06/30 06:51:03;;;;;;;5.00;3.45;;;21.60;71.20;;;;;;5097666;28;20373;-46
2021/06/30 06:53:29;;;;;;;5.47;3.85;;;21.60;71.30;;;;;;5110976;28;20130;-51
2021/06/30 06:55:56;;;;;;;5.90;3.60;;;21.60;71.30;;;;;;5114733;28;20508;-48
2021/06/30 06:58:22;;;;;;;4.38;3.55;;;21.60;71.30;;;;;;5097255;28;20055;-47
2021/06/30 07:00:48;;;;;;;6.13;3.70;;;21.60;71.30;;;;;;5100554;28;20044;-42
2021/06/30 07:03:14;;;;;;;4.40;3.88;;;21.60;71.30;;;;;;5115129;28;20052;-43
2021/06/30 07:05:40;;;;;;;5.03;3.47;;;21.60;71.30;;;;;;5097085;28;20044;-45
2021/06/30 07:08:06;;;;;;;5.38;3.50;;;21.60;71.40;;;;;;5094998;28;20138;-45
2021/06/30 07:10:32;;;;;;;6.05;3.90;;;21.60;71.30;;;;;;5104360;28;20067;-46
2021/06/30 07:12:59;;;;;;;5.07;3.67;;;21.60;71.40;;;;;;5095813;28;20163;-43
2021/06/30 07:15:24;;;;;;;5.68;3.28;;;21.60;71.40;;;;;;5094356;28;20050;-43
2021/06/30 07:17:50;;;;;;;6.18;3.55;;;21.60;71.40;;;;;;5094774;28;20048;-45
2021/06/30 07:20:16;;;;;;;4.53;3.60;;;21.60;71.40;;;;;;5080382;28;20114;-44
2021/06/30 07:22:41;;;;;;;6.35;3.60;;;21.60;71.40;;;;;;5113301;28;20495;-44
2021/06/30 07:25:08;;;;;;;4.13;3.20;;;21.60;71.40;;;;;;5101854;28;20105;-44
2021/06/30 07:27:33;;;;;;;4.85;3.63;;;21.60;71.40;;;;;;5094264;28;20062;-44
2021/06/30 07:29:59;;;;;;;5.40;3.45;;;21.60;71.40;;;;;;5110679;28;20052;-45
2021/06/30 07:32:25;;;;;;;6.32;3.50;;;21.60;71.40;;;;;;5114163;28;20043;-45
2021/06/30 07:34:50;;;;;;;5.30;2.90;;;21.70;71.40;;;;;;5109121;28;20467;-48
2021/06/30 07:37:16;;;;;;;12.40;4.32;;;21.60;71.40;;;;;;5094319;28;20381;-43
2021/06/30 07:39:42;;;;;;;7.07;4.10;;;21.60;70.70;;;;;;5094457;28;20044;-43
2021/06/30 07:42:08;;;;;;;7.35;4.28;;;21.50;71.20;;;;;;5093811;28;20056;-46
2021/06/30 07:44:33;;;;;;;7.07;4.43;;;21.50;70.70;;;;;;5101559;28;20480;-48
2021/06/30 07:46:59;;;;;;;7.55;4.22;;;21.40;70.80;;;;;;5114113;28;20048;-43
2021/06/30 07:49:25;;;;;;;7.18;4.00;;;21.50;70.90;;;;;;5112471;28;20197;-45
2021/06/30 07:51:51;;;;;;;6.60;3.65;;;21.40;71.00;;;;;;5114082;28;20051;-46
2021/06/30 07:54:17;;;;;;;7.63;3.88;;;21.40;71.10;;;;;;5103556;28;20349;-51
2021/06/30 07:56:43;;;;;;;9.27;3.60;;;21.50;71.20;;;;;;5093565;28;20048;-48
2021/06/30 07:59:11;;;;;;;6.55;3.50;;;21.40;71.10;;;;;;5105555;28;20058;-51
2021/06/30 08:01:38;;;;;;;6.85;3.90;;;21.50;71.30;;;;;;5097526;28;20051;-44
2021/06/30 08:04:06;;;;;;;8.40;3.90;;;21.50;71.40;;;;;;5093904;28;20470;-42
2021/06/30 08:06:32;;;;;;;5.80;3.78;;;21.40;71.30;;;;;;5094174;28;20054;-52
2021/06/30 08:08:58;;;;;;;6.57;3.47;;;21.50;71.40;;;;;;5093146;28;20109;-42
2021/06/30 08:11:24;;;;;;;4.85;3.47;;;21.50;71.50;;;;;;5098186;28;20122;-52
2021/06/30 08:13:53;;;;;;;3.83;3.45;;;21.50;71.50;;;;;;5113702;28;20059;-45
2021/06/30 08:16:20;;;;;;;5.60;3.60;;;21.50;71.50;;;;;;5110172;28;20139;-44
2021/06/30 08:18:46;;;;;;;4.72;3.53;;;21.50;71.60;;;;;;5092671;28;20407;-46
2021/06/30 08:21:12;;;;;;;5.32;3.53;;;21.50;71.60;;;;;;5093064;28;20043;-47
2021/06/30 08:23:38;;;;;;;4.00;3.50;;;21.50;71.60;;;;;;5093378;28;20047;-54
2021/06/30 08:26:08;;;;;;;4.35;3.65;;;21.50;71.60;;;;;;5092983;28;20063;-54
2021/06/30 08:28:34;;;;;;;5.38;3.30;;;21.50;71.60;;;;;;5098361;28;20043;-53
2021/06/30 08:31:00;;;;;;;4.22;3.30;;;21.50;71.60;;;;;;5113256;28;20040;-43
2021/06/30 08:33:25;;;;;;;4.00;3.30;;;21.50;71.60;;;;;;5107802;28;20499;-52
2021/06/30 08:35:51;;;;;;;4.13;3.30;;;21.50;72.30;;;;;;5092751;28;20100;-42
2021/06/30 08:38:17;;;;;;;4.90;3.50;;;21.50;71.60;;;;;;5093795;28;20064;-39
2021/06/30 08:40:42;;;;;;;4.88;3.65;;;21.50;71.60;;;;;;5092122;28;20047;-39
2021/06/30 08:43:08;;;;;;;5.57;3.50;;;21.50;71.60;;;;;;5103408;28;20129;-52
2021/06/30 08:45:35;;;;;;;4.05;3.30;;;21.50;71.60;;;;;;5108389;28;20093;-42
2021/06/30 08:48:01;;;;;;;6.75;3.42;;;21.50;71.60;;;;;;5092551;28;20040;-55
2021/06/30 08:50:28;;;;;;;4.07;3.15;;;21.50;71.60;;;;;;5093786;28;20048;-50
2021/06/30 08:52:55;;;;;;;4.50;3.35;;;21.50;71.50;;;;;;5112601;28;20510;-41
2021/06/30 08:55:22;;;;;;;3.80;3.03;;;21.50;71.60;;;;;;5103326;28;20039;-42
2021/06/30 08:57:49;;;;;;;5.60;3.15;;;21.50;71.60;;;;;;5093481;28;20120;-46
2021/06/30 09:00:15;;;;;;;3.85;3.10;;;21.50;71.50;;;;;;5096125;28;20055;-43
2021/06/30 09:02:43;;;;;;;4.03;3.33;;;21.50;71.50;;;;;;5095849;28;20514;-51
2021/06/30 09:07:50;;;;;;;3.83;3.05;;;21.50;71.50;;;;;;5095464;28;20040;-49
2021/06/30 09:10:34;;;;;;;3.90;2.70;;;21.50;71.50;;;;;;5096207;28;20082;-50
2021/06/30 09:13:01;;;;;;;5.80;3.20;;;21.50;71.50;;;;;;5112764;28;20164;-48
2021/06/30 09:15:35;;;;;;;5.97;3.97;;;21.50;71.50;;;;;;5113110;28;20044;-50
2021/06/30 09:18:18;;;;;;;7.00;4.38;;;21.50;70.90;;;;;;5112386;28;20043;-45
2021/06/30 09:20:45;;;;;;;5.57;3.55;;;21.10;71.30;;;;;;5100982;28;20050;-48
2021/06/30 09:23:11;;;;;;;5.80;4.30;;;21.00;71.10;;;;;;5112189;28;20211;-47
2021/06/30 09:25:44;;;;;;;7.05;4.20;;;20.90;70.60;;;;;;5103822;28;20521;-44
2021/06/30 09:28:15;;;;;;;6.43;4.40;;;20.60;71.00;;;;;;5091094;28;20151;-48
2021/06/30 09:31:07;;;;;;;6.97;4.05;;;20.60;71.30;;;;;;5092661;28;20058;-45
2021/06/30 09:33:51;;;;;;;6.63;4.63;;;20.70;71.30;;;;;;5092770;28;20157;-45
2021/06/30 09:36:17;;;;;;;7.10;4.25;;;20.70;71.40;;;;;;5109765;28;20101;-43
2021/06/30 09:38:44;;;;;;;6.32;4.70;;;20.70;71.40;;;;;;5111421;28;20043;-45
2021/06/30 09:41:29;;;;;;;9.20;4.22;;;20.80;71.50;;;;;;5097337;28;20492;-44
2021/06/30 09:44:05;;;;;;;5.75;4.13;;;20.90;71.50;;;;;;5111669;28;20438;-44
2021/06/30 09:46:31;;;;;;;6.45;4.38;;;20.90;71.40;;;;;;5096034;28;20181;-41
2021/06/30 09:49:00;;;;;;;6.63;4.13;;;20.90;71.40;;;;;;5102488;28;20100;-46
2021/06/30 09:51:26;;;;;;;5.63;3.90;;;20.90;71.40;;;;;;5099455;28;20044;-40
2021/06/30 09:53:53;;;;;;;8.15;4.05;;;21.00;72.10;;;;;;5091706;28;20047;-45
2021/06/30 09:56:32;;;;;;;7.65;3.85;;;21.00;71.40;;;;;;5104258;28;20039;-42
2021/06/30 09:59:16;;;;;;;4.82;3.72;;;21.10;71.50;;;;;;5111959;28;20108;-48
2021/06/30 10:01:44;;;;;;;5.47;3.80;;;21.10;71.40;;;;;;5096168;28;20048;-46
2021/06/30 10:04:26;;;;;;;5.63;4.05;;;21.10;71.40;;;;;;5098062;28;20044;-41
2021/06/30 10:06:56;;;;;;;5.35;3.88;;;21.10;71.40;;;;;;5096236;28;20047;-43
2021/06/30 10:09:22;;;;;;;6.43;3.97;;;21.10;71.40;;;;;;5111054;28;20043;-49
2021/06/30 10:12:09;;;;;;;6.07;3.92;;;21.20;71.40;;;;;;5095102;28;20063;-49
2021/06/30 10:14:36;;;;;;;4.93;3.47;;;21.20;71.40;;;;;;5111755;28;20105;-40
2021/06/30 10:17:03;;;;;;;4.72;3.70;;;21.20;71.40;;;;;;5111345;28;20047;-41
2021/06/30 10:19:30;;;;;;;4.10;3.50;;;21.20;71.50;;;;;;5100906;28;20450;-42
2021/06/30 10:21:57;;;;;;;4.40;3.42;;;21.30;71.60;;;;;;5091069;28;20048;-41
2021/06/30 10:24:23;;;;;;;5.32;4.28;;;21.20;71.60;;;;;;5109695;28;20043;-47
2021/06/30 10:26:50;;;;;;;4.72;3.25;;;21.30;71.70;;;;;;5110346;28;20049;-45
2021/06/30 10:29:16;;;;;;;4.65;3.67;;;21.30;71.60;;;;;;5112389;28;20059;-51
2021/06/30 10:31:45;;;;;;;4.47;3.60;;;21.30;71.60;;;;;;5114572;28;20047;-45
2021/06/30 10:34:12;;;;;;;4.72;3.58;;;21.30;71.60;;;;;;5114614;28;20127;-46
2021/06/30 10:36:55;;;;;;;5.78;3.30;;;21.30;71.50;;;;;;5115965;28;20051;-44
2021/06/30 10:39:36;;;;;;;4.45;3.60;;;21.30;71.50;;;;;;5112471;28;20044;-50
2021/06/30 10:42:21;;;;;;;3.80;3.40;;;21.30;71.40;;;;;;5108665;28;20047;-51
2021/06/30 10:44:55;;;;;;;4.28;3.45;;;21.30;71.40;;;;;;5113163;28;20119;-49
2021/06/30 10:47:43;;;;;;;4.88;3.63;;;21.30;71.40;;;;;;5114926;28;20040;-47
2021/06/30 10:50:22;;;;;;;4.13;3.28;;;21.40;71.40;;;;;;5112902;28;20395;-44
2021/06/30 10:53:03;;;;;;;4.45;3.47;;;21.40;71.50;;;;;;5112748;28;20039;-43
2021/06/30 10:55:36;;;;;;;4.55;3.70;;;21.40;71.50;;;;;;5112046;28;20063;-49
2021/06/30 10:58:24;;;;;;;5.40;3.53;;;21.40;71.50;;;;;;5114718;28;20051;-41
2021/06/30 11:01:02;;;;;;;3.60;3.20;;;21.40;71.40;;;;;;5111667;28;20056;-44
2021/06/30 11:03:34;;;;;;;4.50;3.08;;;21.40;71.50;;;;;;5108571;28;20044;-53
2021/06/30 11:06:18;;;;;;;4.00;3.70;;;21.40;71.50;;;;;;5110088;28;20085;-39
2021/06/30 11:09:07;;;;;;;3.00;2.70;;;21.40;71.50;;;;;;5108176;28;20402;-42
2021/06/30 11:11:33;;;;;;;5.07;3.25;;;21.40;71.50;;;;;;5109420;28;20056;-42
2021/06/30 11:13:59;;;;;;;3.55;3.25;;;21.40;71.50;;;;;;5110754;28;20530;-50
2021/06/30 11:16:44;;;;;;;3.67;3.33;;;21.40;71.50;;;;;;5111069;28;20180;-41
2021/06/30 11:19:16;;;;;;;3.35;3.00;;;21.40;71.40;;;;;;5108697;28;20123;-41
2021/06/30 11:21:45;;;;;;;3.67;3.25;;;21.40;71.40;;;;;;5109331;28;20406;-38
2021/06/30 11:24:33;;;;;;;3.45;3.00;;;21.40;71.50;;;;;;5111839;28;20116;-43
2021/06/30 11:26:59;;;;;;;4.38;3.10;;;21.40;71.40;;;;;;5107508;28;20598;-42
2021/06/30 11:29:48;;;;;;;3.70;3.25;;;21.40;71.40;;;;;;5110942;28;20506;-41
2021/06/30 11:32:34;;;;;;;3.80;3.20;;;21.40;71.30;;;;;;5110758;28;20081;-42
2021/06/30 11:35:02;;;;;;;3.78;3.25;;;21.40;72.00;;;;;;5108998;28;20051;-41
2021/06/30 11:37:28;;;;;;;4.03;3.35;;;21.40;71.40;;;;;;5111191;28;20116;-41
2021/06/30 11:40:01;;;;;;;4.75;3.10;;;21.40;71.40;;;;;;5110056;28;20127;-39
2021/06/30 11:42:31;;;;;;;3.90;2.90;;;21.40;71.30;;;;;;5098149;28;20113;-42
2021/06/30 11:44:56;;;;;;;5.88;3.40;;;21.40;71.30;;;;;;5090814;28;20483;-40
2021/06/30 11:47:22;;;;;;;4.47;3.30;;;21.40;71.30;;;;;;5110141;28;20089;-40
2021/06/30 11:49:48;;;;;;;3.33;2.88;;;21.40;71.30;;;;;;5110051;28;20036;-43
2021/06/30 11:52:14;;;;;;;4.10;2.75;;;21.40;71.30;;;;;;5110448;28;20183;-45
2021/06/30 11:54:40;;;;;;;3.30;3.00;;;21.40;71.30;;;;;;5109769;28;20051;-45
2021/06/30 11:57:07;;;;;;;4.55;3.20;;;21.40;71.20;;;;;;5110003;28;20051;-44
2021/06/30 11:59:36;;;;;;;3.60;3.30;;;21.40;71.20;;;;;;5109681;28;20044;-42
2021/06/30 12:02:02;;;;;;;3.63;2.60;;;21.40;71.90;;;;;;5108018;28;20044;-46
2021/06/30 12:04:28;;;;;;;3.42;3.00;;;21.50;71.30;;;;;;5109714;28;20054;-38
2021/06/30 12:07:05;;;;;;;3.40;3.05;;;21.50;71.30;;;;;;5090893;28;20116;-41
2021/06/30 12:09:32;;;;;;;2.80;2.60;;;21.40;71.10;;;;;;5109745;28;20578;-46
2021/06/30 12:12:00;;;;;;;3.70;2.63;;;21.40;71.20;;;;;;5109950;28;20048;-45
2021/06/30 12:14:29;;;;;;;4.22;2.80;;;21.50;71.20;;;;;;5109515;28;20047;-44
2021/06/30 12:17:05;;;;;;;4.25;2.80;;;21.40;71.20;;;;;;5109476;28;20138;-38
2021/06/30 12:19:43;;;;;;;2.92;2.30;;;21.50;71.20;;;;;;5107185;28;20040;-40
2021/06/30 12:22:24;;;;;;;3.20;2.88;;;21.50;71.20;;;;;;5107377;28;20039;-40
2021/06/30 12:25:05;;;;;;;3.10;2.80;;;21.50;71.20;;;;;;5108073;28;20138;-48
2021/06/30 12:27:36;;;;;;;3.28;2.53;;;21.50;71.20;;;;;;5107636;28;20047;-44
2021/06/30 12:30:15;;;;;;;4.60;3.15;;;21.50;71.20;;;;;;5099404;28;20075;-42
2021/06/30 12:32:47;;;;;;;3.88;2.90;;;21.50;71.20;;;;;;5092260;28;20349;-44
2021/06/30 12:35:15;;;;;;;3.05;2.75;;;21.40;71.10;;;;;;5107283;28;20051;-42
2021/06/30 12:37:43;;;;;;;3.45;2.80;;;21.50;71.20;;;;;;5106301;28;20035;-41
2021/06/30 12:40:11;;;;;;;3.08;2.60;;;21.50;71.20;;;;;;5109290;28;20055;-40
2021/06/30 12:42:52;;;;;;;3.42;3.05;;;21.50;71.20;;;;;;5108974;28;20059;-43
2021/06/30 12:45:42;;;;;;;2.70;2.50;;;21.50;71.10;;;;;;5109231;28;20055;-39
2021/06/30 12:48:23;;;;;;;3.10;2.83;;;21.50;71.10;;;;;;5108343;28;20063;-40
2021/06/30 12:50:54;;;;;;;4.93;2.67;;;21.50;71.10;;;;;;5109966;28;20044;-40
2021/06/30 12:53:25;;;;;;;3.20;2.83;;;21.50;71.20;;;;;;5108957;28;20043;-44
2021/06/30 12:55:51;;;;;;;3.90;3.15;;;21.50;71.20;;;;;;5109645;28;20485;-40